首页
METAR-TAF:

METAR-TAF

机场 :

阿讷西, 法国

纬度: 45-55-45N, 经度: 006-05-56E, 海拔: 463米

当前天气观测

该预报发布于38分钟前的10:00 UTC
风速3节,风向,在西北转东北之间变化
温度 12°C
湿度 44%
气压 1018 hPa
能见度10公里或以上
少量云层高于5600英尺

METAR: LFLP 051000Z AUTO 35003KT 280V030 9999 FEW056 12/M00 Q1018 TEMPO FEW040TCU

时间: 11:38 (10:38 UTC)

预报

该预报发布于2小时和38分钟前的08:00 UTC
预报有效从05日的 09点(UTC)到 06日的 09点(UTC)
风速2节,风向多变
能见度10公里或以上
多云层高于5500英尺
成为
从 05日的 10点(UTC)到 05日的 12点(UTC)
风速8节,风向北转西北
几率 40% :
短暂存在
从 05日的 11点(UTC)到 05日的 16点(UTC)
少量云层高于4000英尺, 塔状积云.
成为
从 06日的 01点(UTC)到 06日的 03点(UTC)
风速3节,风向多变
几率 40% :
短暂存在
从 06日的 03点(UTC)到 06日的 07点(UTC)
多云层高于1400英尺

TAF: LFLP 050800Z 0509/0609 VRB02KT 9999 BKN055 BECMG 0510/0512 34008KT PROB40 TEMPO 0511/0516 FEW040TCU BECMG 0601/0603 VRB03KT PROB40 TEMPO 0603/0607 BKN014

超过4000个机场的气象观测和天气预报(METAR&TAF报告)。

可查询的气象台以黄色和红色小点在地图上表示。

将鼠标移到小点上方,可查看气象台名称。

然后点击查看天气观测和预报。

如需切换地图:点击带黑十字的绿色按钮放大地图;点击带横线的绿色按钮缩小地图;或者点击绿色箭头查看邻近地区的地图。


METAR-TAF: